Spring Hill, South Carolina
Current Conditions -  °F | °C
As of 4:58 PM on Wednesday 28 Jan 2015 (Local Time) from KSSC Reporting Station
Clear Clear  
Wind Chill: 46°   Ceiling: Unl
Heat Index: 48°   Visibility: 10mi
Dew Point: 20°   Wind: 6mph
Humidity: 32%   Direction: 340°NNW
Pressure: 30.24"   Gusts: NA
Location:  34.1106°N, 80.4967°W
Report Text: KSSC 282158Z AUTO 34005KT 10SM CLR 09/M07 A3024 RMK AO2 SLP243 T00911068 $
Loading
Personal Weather Stations






























Interactive Weather Map New forecast layout! Learn more

10-Day Weather Forecast

Advertisements
Track Severe Weather on mobile